createdAt,value
2023-01-05T00:00:09.354Z,89.10
2023-01-05T00:02:41.692Z,89.51
2023-01-05T00:05:08.546Z,89.57
2023-01-05T00:07:35.045Z,89.28
2023-01-05T00:10:01.512Z,89.34
2023-01-05T00:12:46.729Z,89.40
2023-01-05T00:15:31.698Z,89.07
2023-01-05T00:18:16.474Z,89.78
2023-01-05T00:21:01.434Z,89.91
2023-01-05T00:23:30.982Z,89.63
2023-01-05T00:25:57.473Z,89.54
2023-01-05T00:28:23.968Z,89.06
2023-01-05T00:30:50.426Z,88.66
2023-01-05T00:33:17.821Z,88.72
2023-01-05T00:35:44.397Z,89.05
2023-01-05T00:38:11.011Z,88.82
2023-01-05T00:40:38.808Z,88.49
2023-01-05T00:43:05.332Z,88.52
2023-01-05T00:45:32.107Z,88.24
2023-01-05T00:47:58.605Z,88.91
2023-01-05T00:50:25.189Z,88.59
2023-01-05T00:52:51.621Z,88.82
2023-01-05T00:55:18.172Z,88.18
2023-01-05T00:57:45.345Z,87.57
2023-01-05T01:00:15.524Z,87.43
2023-01-05T01:02:41.957Z,88.26
2023-01-05T01:05:08.809Z,87.37
2023-01-05T01:07:35.238Z,87.66
2023-01-05T01:10:04.699Z,87.35
2023-01-05T01:12:31.228Z,87.10
2023-01-05T01:14:57.828Z,87.31
2023-01-05T01:17:25.045Z,87.30
2023-01-05T01:19:51.497Z,86.41
2023-01-05T01:22:18.969Z,86.85
2023-01-05T01:24:45.407Z,86.92
2023-01-05T01:27:12.298Z,86.24
2023-01-05T01:29:39.881Z,86.12
2023-01-05T01:32:06.734Z,86.55
2023-01-05T01:34:33.766Z,86.09
2023-01-05T01:39:32.796Z,86.32
2023-01-05T01:42:03.800Z,86.76
2023-01-05T01:44:49.221Z,86.41
2023-01-05T01:47:28.958Z,86.92
2023-01-05T01:49:59.403Z,86.54
2023-01-05T01:52:29.299Z,86.83
2023-01-05T01:54:57.147Z,86.91
2023-01-05T01:57:28.232Z,87.55
2023-01-05T01:59:55.783Z,87.01
2023-01-05T02:02:23.579Z,86.85
2023-01-05T02:04:51.239Z,87.18
2023-01-05T02:07:18.088Z,87.19
2023-01-05T02:09:44.963Z,87.08
2023-01-05T02:12:30.270Z,87.61
2023-01-05T02:15:22.111Z,87.52
2023-01-05T02:18:11.165Z,87.96
2023-01-05T02:21:13.194Z,87.56
2023-01-05T02:24:06.957Z,87.53
2023-01-05T02:26:42.683Z,87.97
2023-01-05T02:29:41.748Z,87.89
2023-01-05T02:32:19.695Z,87.99
2023-01-05T02:34:58.821Z,87.75
2023-01-05T02:37:37.775Z,88.16
2023-01-05T02:40:34.628Z,88.33
2023-01-05T02:43:03.109Z,88.45
2023-01-05T02:45:30.544Z,88.61
2023-01-05T02:48:00.125Z,89.01
2023-01-05T02:50:31.724Z,88.67
2023-01-05T02:53:04.168Z,88.32
2023-01-05T02:56:00.823Z,88.21
2023-01-05T02:58:37.982Z,88.66
2023-01-05T03:01:11.727Z,89.19
2023-01-05T03:03:45.012Z,88.46
2023-01-05T03:06:32.983Z,88.70
2023-01-05T03:09:01.693Z,88.61
2023-01-05T03:12:03.097Z,88.53
2023-01-05T03:14:38.225Z,88.75
2023-01-05T03:17:10.743Z,89.06
2023-01-05T03:19:45.538Z,88.79
2023-01-05T03:22:31.304Z,89.10
2023-01-05T03:25:19.941Z,89.06
2023-01-05T03:28:07.762Z,89.01
2023-01-05T03:31:05.063Z,88.78
2023-01-05T03:34:06.795Z,88.50
2023-01-05T03:36:40.107Z,89.13
2023-01-05T03:39:10.277Z,89.16
2023-01-05T03:41:38.986Z,89.25
2023-01-05T03:44:06.973Z,89.16
2023-01-05T03:46:38.840Z,88.72
2023-01-05T03:49:05.413Z,88.74
2023-01-05T03:51:35.074Z,89.24
2023-01-05T03:54:06.394Z,89.13
2023-01-05T03:56:34.973Z,89.22
2023-01-05T03:59:01.542Z,88.89
2023-01-05T04:01:28.098Z,89.50
2023-01-05T04:03:55.489Z,89.09
2023-01-05T04:06:22.933Z,89.24
2023-01-05T04:08:49.956Z,89.44
2023-01-05T04:11:22.097Z,88.83
2023-01-05T04:13:54.231Z,88.83
2023-01-05T04:16:23.037Z,89.03
2023-01-05T04:18:51.207Z,89.39
2023-01-05T04:21:19.605Z,89.08
2023-01-05T04:23:47.942Z,89.46
2023-01-05T04:26:15.273Z,89.02
2023-01-05T04:28:45.898Z,89.26
2023-01-05T04:31:12.730Z,89.23
2023-01-05T04:33:40.050Z,89.25
2023-01-05T04:36:08.186Z,89.31
2023-01-05T04:38:35.590Z,89.75
2023-01-05T04:41:02.172Z,89.73
2023-01-05T04:43:29.171Z,90.05
2023-01-05T04:45:58.647Z,89.73
2023-01-05T04:48:25.502Z,89.78
2023-01-05T04:50:54.650Z,89.68
2023-01-05T04:53:27.296Z,89.74
2023-01-05T04:55:53.933Z,89.96
2023-01-05T04:58:21.444Z,90.09
2023-01-05T05:00:50.563Z,89.76
2023-01-05T05:03:17.260Z,89.90
2023-01-05T05:05:43.875Z,89.82
2023-01-05T05:08:12.507Z,89.42
2023-01-05T05:10:39.417Z,89.81
2023-01-05T05:13:06.019Z,90.27
2023-01-05T05:15:32.700Z,90.23
2023-01-05T05:18:07.093Z,90.09
2023-01-05T05:20:35.844Z,90.40
2023-01-05T05:23:02.400Z,90.64
2023-01-05T05:25:32.273Z,90.52
2023-01-05T05:27:58.811Z,90.62
2023-01-05T05:30:25.909Z,90.92
2023-01-05T05:32:52.524Z,90.61
2023-01-05T05:35:19.080Z,90.95
2023-01-05T05:37:45.756Z,90.65
2023-01-05T05:40:13.751Z,91.03
2023-01-05T05:42:40.161Z,90.77
2023-01-05T05:45:07.064Z,91.20
2023-01-05T05:47:33.514Z,91.18
2023-01-05T05:49:59.972Z,90.93
2023-01-05T05:52:26.871Z,90.81
2023-01-05T05:54:53.374Z,90.59
2023-01-05T05:57:19.859Z,90.75
2023-01-05T05:59:46.308Z,91.19
2023-01-05T06:02:12.995Z,91.14
2023-01-05T06:04:39.689Z,90.81
2023-01-05T06:07:06.166Z,91.11
2023-01-05T06:09:32.629Z,90.99
2023-01-05T06:11:59.514Z,90.72
2023-01-05T06:14:25.962Z,90.59
2023-01-05T06:16:52.445Z,90.81
2023-01-05T06:19:18.896Z,90.97
2023-01-05T06:21:45.338Z,90.73
2023-01-05T06:24:11.801Z,91.03
2023-01-05T06:26:38.221Z,90.72
2023-01-05T06:29:04.637Z,90.70
2023-01-05T06:31:31.191Z,91.00
2023-01-05T06:33:57.642Z,90.71
2023-01-05T06:36:24.113Z,91.15
2023-01-05T06:38:50.609Z,91.39
2023-01-05T06:41:17.116Z,91.16
2023-01-05T06:43:43.596Z,91.00
2023-01-05T06:46:10.109Z,91.11
2023-01-05T06:48:39.935Z,91.28
2023-01-05T06:51:06.502Z,90.62
2023-01-05T06:53:32.971Z,90.87
2023-01-05T06:55:59.472Z,90.72
2023-01-05T06:58:25.934Z,90.84
2023-01-05T07:00:54.665Z,91.11
2023-01-05T07:03:23.560Z,90.58
2023-01-05T07:05:50.247Z,90.91
2023-01-05T07:08:16.749Z,90.73
2023-01-05T07:10:43.258Z,91.00
2023-01-05T07:13:09.742Z,91.20
2023-01-05T07:15:36.322Z,90.73
2023-01-05T07:18:02.741Z,90.82
2023-01-05T07:20:29.188Z,91.00
2023-01-05T07:22:55.615Z,90.77
2023-01-05T07:25:22.073Z,90.63
2023-01-05T07:27:52.329Z,91.08
2023-01-05T07:30:19.043Z,91.00
2023-01-05T07:32:45.558Z,91.32
2023-01-05T07:35:11.972Z,91.36
2023-01-05T07:37:38.439Z,90.65
2023-01-05T07:40:05.575Z,90.79
2023-01-05T07:42:32.974Z,90.76
2023-01-05T07:44:59.415Z,91.30
2023-01-05T07:47:26.359Z,91.41
2023-01-05T07:49:52.823Z,91.14
2023-01-05T07:52:19.486Z,91.11
2023-01-05T07:54:45.946Z,90.91
2023-01-05T07:57:12.416Z,90.74
2023-01-05T07:59:39.041Z,91.09
2023-01-05T08:02:05.978Z,90.96
2023-01-05T08:04:32.513Z,90.88
2023-01-05T08:06:59.012Z,91.15
2023-01-05T08:09:44.169Z,90.73
2023-01-05T08:12:10.627Z,90.52
2023-01-05T08:14:37.037Z,90.45
2023-01-05T08:17:03.498Z,90.41
2023-01-05T08:19:29.908Z,90.51
2023-01-05T08:21:56.350Z,90.85
2023-01-05T08:24:23.255Z,90.70
2023-01-05T08:26:51.307Z,90.44
2023-01-05T08:29:17.887Z,90.49
2023-01-05T08:31:44.399Z,90.29
2023-01-05T08:34:10.877Z,90.17
2023-01-05T08:36:37.495Z,89.91
2023-01-05T08:39:04.280Z,89.89
2023-01-05T08:41:33.113Z,90.04
2023-01-05T08:44:02.945Z,89.29
2023-01-05T08:46:32.768Z,89.63
2023-01-05T08:49:01.567Z,89.82
2023-01-05T08:51:29.733Z,89.59
2023-01-05T08:53:56.939Z,89.67
2023-01-05T08:56:25.160Z,89.56
2023-01-05T08:58:52.781Z,89.49
2023-01-05T09:01:21.916Z,89.38
2023-01-05T09:03:48.985Z,89.18
2023-01-05T09:06:15.962Z,89.77
2023-01-05T09:08:44.381Z,89.57
2023-01-05T09:11:15.459Z,89.57
2023-01-05T09:13:56.764Z,89.74
2023-01-05T09:17:04.663Z,89.06
2023-01-05T09:19:12.541Z,88.76
2023-01-05T09:21:41.926Z,89.13
2023-01-05T09:24:12.726Z,89.18
2023-01-05T09:26:40.095Z,89.17
2023-01-05T09:29:06.819Z,88.64
2023-01-05T09:31:33.367Z,88.38
2023-01-05T09:33:59.888Z,88.69
2023-01-05T09:36:26.408Z,87.76
2023-01-05T09:38:54.305Z,88.24
2023-01-05T09:41:29.291Z,88.52
2023-01-05T09:43:59.751Z,88.35
2023-01-05T09:46:35.209Z,88.47
2023-01-05T09:49:04.546Z,88.04
2023-01-05T09:51:31.184Z,87.94
2023-01-05T09:53:59.698Z,87.56
2023-01-05T09:59:29.953Z,87.36
2023-01-05T10:02:00.940Z,87.34
2023-01-05T10:04:30.975Z,87.57
2023-01-05T10:07:04.393Z,87.06
2023-01-05T10:09:35.113Z,87.17
2023-01-05T10:12:44.030Z,86.80
2023-01-05T10:15:16.149Z,87.41
2023-01-05T10:17:44.755Z,87.46
2023-01-05T10:20:25.077Z,87.08
2023-01-05T10:23:15.382Z,86.40
2023-01-05T10:25:54.803Z,86.31
2023-01-05T10:28:37.654Z,85.94
2023-01-05T10:31:20.054Z,86.81
2023-01-05T10:33:56.801Z,85.93
2023-01-05T10:37:11.070Z,85.25
2023-01-05T10:39:54.295Z,86.37
2023-01-05T10:42:47.017Z,85.96
2023-01-05T10:45:15.781Z,85.52
2023-01-05T10:47:45.249Z,85.34
2023-01-05T10:50:40.952Z,86.02
2023-01-05T10:53:19.773Z,86.40
2023-01-05T10:55:58.437Z,86.49
2023-01-05T10:58:30.369Z,85.53
2023-01-05T11:01:01.346Z,84.94
2023-01-05T11:06:30.443Z,85.38
2023-01-05T11:09:10.564Z,85.32
2023-01-05T11:11:37.120Z,85.84
2023-01-05T11:14:05.333Z,85.44
2023-01-05T11:16:35.295Z,85.78
2023-01-05T11:19:03.209Z,85.57
2023-01-05T11:21:35.586Z,84.91
2023-01-05T11:24:03.827Z,84.61
2023-01-05T11:26:48.928Z,84.61
2023-01-05T11:29:16.325Z,84.83
2023-01-05T11:31:48.570Z,84.47
2023-01-05T11:34:18.797Z,83.37
2023-01-05T11:36:52.967Z,82.58
2023-01-05T11:39:29.654Z,82.92
2023-01-05T11:42:08.215Z,81.20
2023-01-05T11:44:35.841Z,81.28
2023-01-05T11:47:04.676Z,81.75
2023-01-05T11:49:31.546Z,81.03
2023-01-05T11:51:58.103Z,80.29
2023-01-05T11:54:39.185Z,80.04
2023-01-05T11:57:20.158Z,80.57
2023-01-05T11:59:51.042Z,78.39
2023-01-05T12:02:51.693Z,79.37
2023-01-05T12:05:28.358Z,79.76
2023-01-05T12:08:17.756Z,80.17
2023-01-05T12:11:10.750Z,80.93
2023-01-05T12:13:55.527Z,80.61
2023-01-05T12:16:37.927Z,79.96
2023-01-05T12:19:29.721Z,80.64
2023-01-05T12:22:22.980Z,80.45
2023-01-05T12:25:36.730Z,81.44
2023-01-05T12:28:56.617Z,81.30
2023-01-05T12:35:02.660Z,81.16
2023-01-05T12:37:48.484Z,80.98
2023-01-05T12:40:38.175Z,81.33
2023-01-05T12:43:09.254Z,82.34
2023-01-05T12:46:06.344Z,81.61
2023-01-05T12:48:52.222Z,81.73
2023-01-05T12:51:24.899Z,81.40
2023-01-05T12:54:06.211Z,82.19
2023-01-05T12:56:42.274Z,82.77
2023-01-05T12:59:23.333Z,83.24
2023-01-05T13:01:59.690Z,83.44
2023-01-05T13:04:46.762Z,83.08
2023-01-05T13:07:23.905Z,83.21
2023-01-05T13:10:02.311Z,83.86
2023-01-05T13:12:29.423Z,83.51
2023-01-05T13:15:15.040Z,83.93
2023-01-05T13:17:46.991Z,83.60
2023-01-05T13:20:22.921Z,83.93
2023-01-05T13:22:53.433Z,83.96
2023-01-05T13:25:27.465Z,84.57
2023-01-05T13:27:54.043Z,84.59
2023-01-05T13:30:26.287Z,84.95
2023-01-05T13:33:26.004Z,84.33
2023-01-05T13:36:07.652Z,83.98
2023-01-05T13:39:07.292Z,84.64
2023-01-05T13:41:41.979Z,84.22
2023-01-05T13:44:20.630Z,84.44
2023-01-05T13:47:14.391Z,84.59
2023-01-05T13:50:02.824Z,84.54
2023-01-05T13:52:35.294Z,84.42
2023-01-05T13:55:03.968Z,84.59
2023-01-05T13:57:38.887Z,83.09
2023-01-05T14:00:20.645Z,83.54
2023-01-05T14:02:59.279Z,83.97
2023-01-05T14:05:32.869Z,84.39
2023-01-05T14:08:04.664Z,84.35
2023-01-05T14:10:33.935Z,84.59
2023-01-05T14:13:00.612Z,84.19
2023-01-05T14:15:43.662Z,84.60
2023-01-05T14:18:13.629Z,84.73
2023-01-05T14:20:44.986Z,84.30
2023-01-05T14:23:23.729Z,84.77
2023-01-05T14:25:57.374Z,84.69
2023-01-05T14:28:29.957Z,85.01
2023-01-05T14:31:25.921Z,85.34
2023-01-05T14:33:59.561Z,86.11
2023-01-05T14:36:31.393Z,86.18
2023-01-05T14:38:59.553Z,86.12
2023-01-05T14:41:28.660Z,86.82
2023-01-05T14:44:04.540Z,87.12
2023-01-05T14:46:54.115Z,87.51
2023-01-05T14:49:34.502Z,87.31
2023-01-05T14:52:04.066Z,87.94
2023-01-05T14:54:42.525Z,88.17
2023-01-05T14:57:27.015Z,88.47
2023-01-05T15:00:07.534Z,88.55
2023-01-05T15:02:46.581Z,88.93
2023-01-05T15:05:18.315Z,88.81
2023-01-05T15:08:11.967Z,88.97
2023-01-05T15:10:57.147Z,89.19
2023-01-05T15:14:19.263Z,89.57
2023-01-05T15:17:21.764Z,90.27
2023-01-05T15:20:09.970Z,90.89
2023-01-05T15:22:55.826Z,91.24
2023-01-05T15:25:49.261Z,91.73
2023-01-05T15:28:39.424Z,91.58
2023-01-05T15:31:30.197Z,91.63
2023-01-05T15:34:23.942Z,91.96
2023-01-05T15:37:11.475Z,92.40
2023-01-05T15:39:55.663Z,92.16
2023-01-05T15:42:44.713Z,92.60
2023-01-05T15:45:19.993Z,92.29
2023-01-05T15:47:47.277Z,92.31
2023-01-05T15:50:22.552Z,92.27
2023-01-05T15:53:00.095Z,92.39
2023-01-05T15:55:28.876Z,92.60
2023-01-05T15:58:01.057Z,92.80
2023-01-05T16:00:31.175Z,92.52
2023-01-05T16:02:57.777Z,92.64
2023-01-05T16:05:30.381Z,93.03
2023-01-05T16:07:59.763Z,93.66
2023-01-05T16:10:28.936Z,93.49
2023-01-05T16:13:04.670Z,93.80
2023-01-05T16:15:34.514Z,94.01
2023-01-05T16:18:02.772Z,94.36
2023-01-05T16:20:29.850Z,94.02
2023-01-05T16:23:08.777Z,94.50
2023-01-05T16:25:48.671Z,94.38
2023-01-05T16:28:18.291Z,94.85
2023-01-05T16:30:46.796Z,94.33
2023-01-05T16:33:30.115Z,94.74
2023-01-05T16:36:23.006Z,95.02
2023-01-05T16:38:49.464Z,95.18
2023-01-05T16:41:25.455Z,95.46
2023-01-05T16:43:51.931Z,95.22
2023-01-05T16:46:20.453Z,95.78
2023-01-05T16:48:52.712Z,95.60
2023-01-05T16:51:38.713Z,95.69
2023-01-05T16:54:09.990Z,95.94
2023-01-05T16:56:36.384Z,96.29
2023-01-05T16:59:24.422Z,96.39
2023-01-05T17:01:52.116Z,96.25
2023-01-05T17:04:18.652Z,96.48
2023-01-05T17:06:47.996Z,96.53
2023-01-05T17:09:25.496Z,96.76
2023-01-05T17:11:52.100Z,96.74
2023-01-05T17:14:19.847Z,96.98
2023-01-05T17:16:46.435Z,97.05
2023-01-05T17:19:14.655Z,96.75
2023-01-05T17:21:51.045Z,97.30
2023-01-05T17:24:17.487Z,97.47
2023-01-05T17:26:45.403Z,97.42
2023-01-05T17:29:21.215Z,97.29
2023-01-05T17:31:48.470Z,97.72
2023-01-05T17:34:14.885Z,97.56
2023-01-05T17:36:42.144Z,97.92
2023-01-05T17:39:10.109Z,97.95
2023-01-05T17:44:08.737Z,98.03
2023-01-05T17:46:38.160Z,97.95
2023-01-05T17:49:04.614Z,97.96
2023-01-05T17:51:31.651Z,98.56
2023-01-05T17:53:59.427Z,98.63
2023-01-05T17:56:26.170Z,98.55
2023-01-05T17:58:52.930Z,98.69
2023-01-05T18:01:20.063Z,98.46
2023-01-05T18:06:18.921Z,98.73
2023-01-05T18:08:45.378Z,98.53
2023-01-05T18:11:11.907Z,98.96
2023-01-05T18:13:38.753Z,99.06
2023-01-05T18:16:10.501Z,99.03
2023-01-05T18:18:36.998Z,99.01
2023-01-05T18:21:05.058Z,98.58
2023-01-05T18:23:32.460Z,98.86
2023-01-05T18:26:03.765Z,98.98
2023-01-05T18:28:30.256Z,98.99
2023-01-05T18:30:56.723Z,98.84
2023-01-05T18:33:23.377Z,98.96
2023-01-05T18:35:50.779Z,99.15
2023-01-05T18:38:20.809Z,98.74
2023-01-05T18:40:49.286Z,99.22
2023-01-05T18:43:16.985Z,99.02
2023-01-05T18:45:44.107Z,98.91
2023-01-05T18:48:10.610Z,98.87
2023-01-05T18:50:49.918Z,98.93
2023-01-05T18:53:17.508Z,99.13
2023-01-05T18:55:44.004Z,98.94
2023-01-05T18:58:11.699Z,99.17
2023-01-05T19:00:42.747Z,99.29
2023-01-05T19:03:10.061Z,99.21
2023-01-05T19:05:44.421Z,99.26
2023-01-05T19:08:12.652Z,99.05
2023-01-05T19:10:39.858Z,98.92
2023-01-05T19:13:06.852Z,99.28
2023-01-05T19:15:35.031Z,99.36
2023-01-05T19:18:02.098Z,99.45
2023-01-05T19:20:28.559Z,99.03
2023-01-05T19:22:55.019Z,99.43
2023-01-05T19:25:21.510Z,99.09
2023-01-05T19:27:48.489Z,99.52
2023-01-05T19:30:17.537Z,99.16
2023-01-05T19:32:44.467Z,99.20
2023-01-05T19:35:11.180Z,99.02
2023-01-05T19:37:42.303Z,99.22
2023-01-05T19:40:10.126Z,99.63
2023-01-05T19:42:36.869Z,99.38
2023-01-05T19:45:03.725Z,99.01
2023-01-05T19:47:30.570Z,99.40
2023-01-05T19:49:57.030Z,99.37
2023-01-05T19:52:29.470Z,99.14
2023-01-05T19:54:56.371Z,99.15
2023-01-05T19:57:23.236Z,99.49
2023-01-05T19:59:51.322Z,99.63
2023-01-05T20:02:18.227Z,99.56
2023-01-05T20:04:46.512Z,99.21
2023-01-05T20:07:13.251Z,99.43
2023-01-05T20:09:40.381Z,99.18
2023-01-05T20:12:14.353Z,99.33
2023-01-05T20:14:42.043Z,99.34
2023-01-05T20:17:09.906Z,99.33
2023-01-05T20:19:37.889Z,99.39
2023-01-05T20:22:07.553Z,98.95
2023-01-05T20:24:36.617Z,99.38
2023-01-05T20:27:04.768Z,99.40
2023-01-05T20:29:31.896Z,99.41
2023-01-05T20:32:05.301Z,99.49
2023-01-05T20:34:35.218Z,99.56
2023-01-05T20:37:04.065Z,99.39
2023-01-05T20:39:31.085Z,99.28
2023-01-05T20:42:04.408Z,99.23
2023-01-05T20:44:34.251Z,99.17
2023-01-05T20:47:01.322Z,99.51
2023-01-05T20:49:27.882Z,99.56
2023-01-05T20:51:54.414Z,99.42
2023-01-05T20:54:20.926Z,99.59
2023-01-05T20:56:49.185Z,99.73
2023-01-05T20:59:29.909Z,98.99
2023-01-05T21:01:56.822Z,99.55
2023-01-05T21:04:25.374Z,99.44
2023-01-05T21:06:59.301Z,99.25
2023-01-05T21:09:28.693Z,98.95
2023-01-05T21:11:55.792Z,98.65
2023-01-05T21:14:22.200Z,99.05
2023-01-05T21:16:52.227Z,98.70
2023-01-05T21:19:21.801Z,99.01
2023-01-05T21:21:50.606Z,99.20
2023-01-05T21:24:17.261Z,99.10
2023-01-05T21:26:44.144Z,99.10
2023-01-05T21:29:14.354Z,98.84
2023-01-05T21:31:41.075Z,99.03
2023-01-05T21:34:08.115Z,98.65
2023-01-05T21:36:38.370Z,98.60
2023-01-05T21:39:08.291Z,98.63
2023-01-05T21:41:55.964Z,98.93
2023-01-05T21:44:23.206Z,98.86
2023-01-05T21:46:50.451Z,98.85
2023-01-05T21:49:18.158Z,99.14
2023-01-05T21:52:03.476Z,98.85
2023-01-05T21:54:49.201Z,98.73
2023-01-05T21:57:16.021Z,98.67
2023-01-05T21:59:43.372Z,98.56
2023-01-05T22:02:10.154Z,98.62
2023-01-05T22:04:37.051Z,98.71
2023-01-05T22:07:05.237Z,98.37
2023-01-05T22:09:31.737Z,98.58
2023-01-05T22:11:58.222Z,98.56
2023-01-05T22:14:24.669Z,98.74
2023-01-05T22:16:52.082Z,98.44
2023-01-05T22:19:18.572Z,98.53
2023-01-05T22:21:45.151Z,98.07
2023-01-05T22:24:12.728Z,98.26
2023-01-05T22:26:39.743Z,97.71
2023-01-05T22:29:06.303Z,98.34
2023-01-05T22:31:35.510Z,98.16
2023-01-05T22:34:02.756Z,98.31
2023-01-05T22:36:30.733Z,97.77
2023-01-05T22:38:58.553Z,98.55
2023-01-05T22:41:29.835Z,97.86
2023-01-05T22:43:56.816Z,98.10
2023-01-05T22:46:27.932Z,97.73
2023-01-05T22:48:55.382Z,98.10
2023-01-05T22:51:27.853Z,97.54
2023-01-05T22:53:55.154Z,97.62
2023-01-05T22:56:23.248Z,97.81
2023-01-05T22:58:50.145Z,97.84
2023-01-05T23:01:25.005Z,97.88
2023-01-05T23:03:52.940Z,97.95
2023-01-05T23:06:19.830Z,97.99
2023-01-05T23:08:47.324Z,98.13
2023-01-05T23:11:30.575Z,97.75
2023-01-05T23:13:58.702Z,97.77
2023-01-05T23:16:26.140Z,97.71
2023-01-05T23:18:53.380Z,97.98
2023-01-05T23:21:22.091Z,97.93
2023-01-05T23:23:51.340Z,97.98
2023-01-05T23:26:17.802Z,98.02
2023-01-05T23:28:44.788Z,97.70
2023-01-05T23:31:14.499Z,97.86
2023-01-05T23:33:41.631Z,98.25
2023-01-05T23:36:09.522Z,97.99
2023-01-05T23:38:36.498Z,98.04
2023-01-05T23:41:06.127Z,98.45
2023-01-05T23:43:33.194Z,98.21
2023-01-05T23:46:02.315Z,98.44
2023-01-05T23:48:29.301Z,97.85
2023-01-05T23:50:56.981Z,98.01
2023-01-05T23:53:24.607Z,98.08
2023-01-05T23:55:51.252Z,98.21
2023-01-05T23:58:17.833Z,98.36
